createdAt,value
2018-03-27T00:02:23.114Z,52.50
2018-03-27T00:04:51.308Z,52.50
2018-03-27T00:07:20.196Z,52.30
2018-03-27T00:09:49.072Z,52.40
2018-03-27T00:12:17.942Z,52.40
2018-03-27T00:14:46.088Z,52.40
2018-03-27T00:17:14.328Z,52.60
2018-03-27T00:19:43.214Z,52.40
2018-03-27T00:22:12.087Z,52.40
2018-03-27T00:24:42.106Z,52.40
2018-03-27T00:27:10.628Z,52.00
2018-03-27T00:29:50.713Z,51.90
2018-03-27T00:32:30.664Z,52.30
2018-03-27T00:35:10.661Z,52.10
2018-03-27T00:37:51.491Z,52.10
2018-03-27T00:40:31.590Z,52.10
2018-03-27T00:43:10.404Z,52.30
2018-03-27T00:45:39.273Z,52.30
2018-03-27T00:48:08.171Z,52.10
2018-03-27T00:50:37.041Z,52.50
2018-03-27T00:53:05.164Z,52.50
2018-03-27T00:55:33.285Z,52.60
2018-03-27T00:58:01.400Z,52.50
2018-03-27T01:00:29.530Z,52.30
2018-03-27T01:02:57.640Z,52.30
2018-03-27T01:05:25.747Z,52.50
2018-03-27T01:07:53.889Z,52.50
2018-03-27T01:10:22.047Z,52.30
2018-03-27T01:12:50.923Z,52.50
2018-03-27T01:15:19.803Z,53.00
2018-03-27T01:17:47.923Z,52.40
2018-03-27T01:20:16.084Z,52.60
2018-03-27T01:22:44.195Z,52.70
2018-03-27T01:25:12.300Z,52.40
2018-03-27T01:27:41.180Z,52.50
2018-03-27T01:30:09.268Z,52.40
2018-03-27T01:32:38.124Z,52.20
2018-03-27T01:35:06.233Z,52.20
2018-03-27T01:37:35.103Z,52.40
2018-03-27T01:40:03.196Z,52.30
2018-03-27T01:42:32.056Z,52.60
2018-03-27T01:45:00.238Z,52.60
2018-03-27T01:47:28.324Z,52.80
2018-03-27T01:49:57.196Z,52.30
2018-03-27T01:52:25.317Z,52.30
2018-03-27T01:54:53.428Z,53.00
2018-03-27T01:57:21.526Z,52.80
2018-03-27T01:59:50.415Z,53.30
2018-03-27T02:02:19.403Z,52.50
2018-03-27T02:04:48.272Z,52.70
2018-03-27T02:07:16.384Z,52.70
2018-03-27T02:09:44.478Z,52.60
2018-03-27T02:12:18.360Z,52.30
2018-03-27T02:14:52.121Z,52.30
2018-03-27T02:17:26.058Z,52.10
2018-03-27T02:19:59.815Z,52.30
2018-03-27T02:22:27.910Z,52.50
2018-03-27T02:24:56.048Z,52.40
2018-03-27T02:27:24.135Z,52.10
2018-03-27T02:29:52.226Z,52.30
2018-03-27T02:32:20.337Z,52.50
2018-03-27T02:34:49.263Z,52.00
2018-03-27T02:37:17.313Z,52.10
2018-03-27T02:39:45.452Z,51.90
2018-03-27T02:42:14.329Z,52.20
2018-03-27T02:44:42.435Z,52.20
2018-03-27T02:47:10.522Z,52.10
2018-03-27T02:49:38.663Z,52.40
2018-03-27T02:52:07.531Z,52.40
2018-03-27T02:54:35.717Z,52.40
2018-03-27T02:57:03.735Z,52.20
2018-03-27T02:59:31.857Z,52.30
2018-03-27T03:02:00.725Z,51.90
2018-03-27T03:04:28.843Z,52.30
2018-03-27T03:06:58.206Z,51.90
2018-03-27T03:09:26.313Z,51.90
2018-03-27T03:11:55.192Z,52.10
2018-03-27T03:14:24.075Z,52.60
2018-03-27T03:16:52.941Z,52.70
2018-03-27T03:19:21.049Z,52.70
2018-03-27T03:21:50.039Z,52.20
2018-03-27T03:24:18.921Z,52.70
2018-03-27T03:26:48.813Z,52.60
2018-03-27T03:29:16.903Z,52.60
2018-03-27T03:31:45.777Z,52.70
2018-03-27T03:34:13.881Z,52.70
2018-03-27T03:36:42.012Z,53.10
2018-03-27T03:39:10.124Z,52.90
2018-03-27T03:41:39.008Z,52.80
2018-03-27T03:44:07.924Z,52.90
2018-03-27T03:46:36.047Z,52.80
2018-03-27T03:49:04.142Z,53.00
2018-03-27T03:51:33.028Z,53.60
2018-03-27T03:54:01.904Z,53.50
2018-03-27T03:56:30.026Z,53.40
2018-03-27T03:58:58.171Z,53.20
2018-03-27T04:01:27.044Z,54.00
2018-03-27T04:03:55.181Z,54.00
2018-03-27T04:06:23.292Z,54.20
2018-03-27T04:08:52.168Z,54.50
2018-03-27T04:11:20.303Z,53.90
2018-03-27T04:13:48.410Z,53.90
2018-03-27T04:16:16.548Z,54.00
2018-03-27T04:18:44.683Z,54.40
2018-03-27T04:21:13.553Z,54.70
2018-03-27T04:23:41.707Z,54.70
2018-03-27T04:26:09.865Z,55.10
2018-03-27T04:28:37.939Z,54.90
2018-03-27T04:31:06.040Z,55.00
2018-03-27T04:33:34.217Z,54.90
2018-03-27T04:36:02.340Z,54.80
2018-03-27T04:38:30.449Z,55.10
2018-03-27T04:41:00.066Z,55.50
2018-03-27T04:43:28.969Z,56.30
2018-03-27T04:45:57.863Z,55.70
2018-03-27T04:48:26.735Z,55.40
2018-03-27T04:50:54.840Z,55.40
2018-03-27T04:53:22.959Z,55.40
2018-03-27T04:55:51.079Z,55.70
2018-03-27T04:58:19.197Z,56.20
2018-03-27T05:00:47.303Z,55.90
2018-03-27T05:03:16.191Z,56.30
2018-03-27T05:05:45.103Z,56.10
2018-03-27T05:08:13.211Z,56.00
2018-03-27T05:10:41.324Z,56.10
2018-03-27T05:13:09.455Z,55.90
2018-03-27T05:15:37.903Z,56.10
2018-03-27T05:18:06.011Z,56.00
2018-03-27T05:20:34.123Z,56.20
2018-03-27T05:23:03.026Z,56.50
2018-03-27T05:25:31.921Z,56.40
2018-03-27T05:28:00.794Z,56.40
2018-03-27T05:30:29.671Z,56.20
2018-03-27T05:32:57.790Z,56.20
2018-03-27T05:35:25.909Z,56.80
2018-03-27T05:37:54.048Z,56.70
2018-03-27T05:40:22.185Z,56.60
2018-03-27T05:42:51.067Z,56.80
2018-03-27T05:45:19.945Z,57.20
2018-03-27T05:47:48.140Z,57.20
2018-03-27T05:50:17.020Z,57.00
2018-03-27T05:52:45.919Z,57.30
2018-03-27T05:55:14.836Z,57.00
2018-03-27T05:57:42.954Z,57.10
2018-03-27T06:00:11.068Z,57.70
2018-03-27T06:02:39.195Z,57.80
2018-03-27T06:05:07.339Z,57.50
2018-03-27T06:07:35.418Z,57.50
2018-03-27T06:10:03.641Z,57.50
2018-03-27T06:12:32.522Z,57.60
2018-03-27T06:15:01.418Z,57.80
2018-03-27T06:17:30.396Z,57.50
2018-03-27T06:19:58.444Z,57.50
2018-03-27T06:22:26.550Z,58.20
2018-03-27T06:24:55.478Z,59.00
2018-03-27T06:27:23.624Z,58.40
2018-03-27T06:29:51.724Z,58.40
2018-03-27T06:32:19.856Z,58.80
2018-03-27T06:34:48.738Z,58.80
2018-03-27T06:37:17.632Z,58.90
2018-03-27T06:39:46.536Z,59.10
2018-03-27T06:42:15.468Z,59.20
2018-03-27T06:44:43.600Z,59.20
2018-03-27T06:47:12.531Z,59.30
2018-03-27T06:49:40.638Z,59.20
2018-03-27T06:52:08.752Z,59.90
2018-03-27T06:54:36.898Z,59.50
2018-03-27T06:57:05.796Z,59.70
2018-03-27T06:59:34.845Z,59.40
2018-03-27T07:02:03.006Z,59.50
2018-03-27T07:04:31.114Z,59.40
2018-03-27T07:06:59.316Z,59.50
2018-03-27T07:09:28.219Z,59.60
2018-03-27T07:11:56.388Z,59.60
2018-03-27T07:14:24.555Z,59.40
2018-03-27T07:16:52.698Z,59.40
2018-03-27T07:19:20.788Z,59.60
2018-03-27T07:21:49.668Z,59.60
2018-03-27T07:24:17.767Z,59.60
2018-03-27T07:26:46.027Z,59.60
2018-03-27T07:29:14.927Z,59.50
2018-03-27T07:31:43.095Z,59.50
2018-03-27T07:34:11.224Z,59.60
2018-03-27T07:36:39.444Z,59.60
2018-03-27T07:39:08.437Z,59.70
2018-03-27T07:41:37.308Z,59.40
2018-03-27T07:44:06.180Z,60.00
2018-03-27T07:46:34.323Z,59.30
2018-03-27T07:49:02.486Z,59.30
2018-03-27T07:51:30.600Z,59.30
2018-03-27T07:53:58.799Z,59.30
2018-03-27T07:56:27.708Z,59.50
2018-03-27T07:58:55.835Z,59.50
2018-03-27T08:01:23.947Z,59.70
2018-03-27T08:03:52.066Z,59.70
2018-03-27T08:06:20.189Z,59.80
2018-03-27T08:08:48.308Z,59.80
2018-03-27T08:11:16.541Z,59.90
2018-03-27T08:13:44.681Z,60.00
2018-03-27T08:16:13.557Z,59.90
2018-03-27T08:18:43.308Z,59.80
2018-03-27T08:21:11.487Z,59.80
2018-03-27T08:23:39.615Z,59.80
2018-03-27T08:26:07.721Z,59.90
2018-03-27T08:28:36.619Z,59.30
2018-03-27T08:31:04.733Z,59.30
2018-03-27T08:33:32.850Z,59.60
2018-03-27T08:36:01.775Z,58.40
2018-03-27T08:38:29.917Z,58.50
2018-03-27T08:40:58.807Z,58.40
2018-03-27T08:43:27.687Z,58.30
2018-03-27T08:45:56.666Z,57.50
2018-03-27T08:48:24.745Z,57.60
2018-03-27T08:50:53.635Z,56.70
2018-03-27T08:53:22.554Z,56.50
2018-03-27T08:55:50.675Z,56.50
2018-03-27T08:58:18.823Z,56.80
2018-03-27T09:00:46.946Z,56.30
2018-03-27T09:03:15.838Z,56.20
2018-03-27T09:05:44.747Z,56.10
2018-03-27T09:08:12.883Z,56.10
2018-03-27T09:10:42.509Z,56.30
2018-03-27T09:13:11.393Z,56.20
2018-03-27T09:15:40.317Z,55.60
2018-03-27T09:18:08.463Z,55.60
2018-03-27T09:20:37.356Z,55.60
2018-03-27T09:23:06.241Z,56.00
2018-03-27T09:25:35.161Z,55.90
2018-03-27T09:28:03.287Z,55.90
2018-03-27T09:30:31.439Z,56.30
2018-03-27T09:32:59.564Z,56.70
2018-03-27T09:35:27.771Z,56.20
2018-03-27T09:37:56.026Z,56.30
2018-03-27T09:40:24.167Z,56.60
2018-03-27T09:42:52.285Z,56.50
2018-03-27T09:45:20.406Z,56.60
2018-03-27T09:47:48.561Z,56.40
2018-03-27T09:50:16.686Z,56.80
2018-03-27T09:52:44.813Z,57.00
2018-03-27T09:55:12.934Z,57.10
2018-03-27T09:57:41.115Z,57.30
2018-03-27T10:00:09.282Z,57.50
2018-03-27T10:02:37.390Z,57.50
2018-03-27T10:05:05.514Z,57.60
2018-03-27T10:07:33.656Z,57.80
2018-03-27T10:10:03.402Z,58.30
2018-03-27T10:12:31.576Z,58.30
2018-03-27T10:14:59.734Z,58.30
2018-03-27T10:17:28.618Z,58.20
2018-03-27T10:19:57.524Z,58.30
2018-03-27T10:22:26.442Z,58.30
2018-03-27T10:24:54.628Z,58.30
2018-03-27T10:27:22.747Z,58.50
2018-03-27T10:29:51.662Z,58.50
2018-03-27T10:32:19.858Z,58.40
2018-03-27T10:34:47.964Z,58.30
2018-03-27T10:37:16.110Z,58.30
2018-03-27T10:39:44.240Z,58.40
2018-03-27T10:42:12.427Z,58.60
2018-03-27T10:44:40.544Z,58.60
2018-03-27T10:47:08.784Z,58.80
2018-03-27T10:49:36.940Z,58.80
2018-03-27T10:52:05.128Z,59.00
2018-03-27T10:54:33.244Z,59.10
2018-03-27T10:57:01.370Z,59.20
2018-03-27T10:59:29.512Z,59.30
2018-03-27T11:01:58.389Z,59.50
2018-03-27T11:04:26.604Z,59.50
2018-03-27T11:06:54.792Z,59.60
2018-03-27T11:09:23.894Z,60.10
2018-03-27T11:11:51.999Z,60.50
2018-03-27T11:14:20.139Z,60.50
2018-03-27T11:16:48.284Z,60.80
2018-03-27T11:19:16.424Z,60.70
2018-03-27T11:21:44.651Z,60.40
2018-03-27T11:24:12.776Z,60.30
2018-03-27T11:26:40.932Z,60.30
2018-03-27T11:29:09.052Z,60.50
2018-03-27T11:31:37.191Z,60.70
2018-03-27T11:34:06.838Z,60.10
2018-03-27T11:36:34.960Z,60.10
2018-03-27T11:39:03.092Z,60.20
2018-03-27T11:41:31.229Z,60.10
2018-03-27T11:44:00.112Z,59.70
2018-03-27T11:46:28.997Z,59.70
2018-03-27T11:48:57.969Z,59.80
2018-03-27T11:51:26.118Z,59.80
2018-03-27T11:53:54.239Z,60.10
2018-03-27T11:56:22.355Z,60.60
2018-03-27T11:58:50.488Z,60.80
2018-03-27T12:01:19.388Z,61.60
2018-03-27T12:03:48.280Z,60.70
2018-03-27T12:06:17.223Z,61.00
2018-03-27T12:08:45.343Z,61.00
2018-03-27T12:11:14.240Z,61.00
2018-03-27T12:13:43.167Z,61.00
2018-03-27T12:16:11.329Z,61.00
2018-03-27T12:18:39.487Z,61.30
2018-03-27T12:21:07.641Z,62.00
2018-03-27T12:23:36.545Z,62.00
2018-03-27T12:26:05.468Z,62.10
2018-03-27T12:28:33.715Z,62.00
2018-03-27T12:31:01.919Z,62.10
2018-03-27T12:33:30.067Z,61.90
2018-03-27T12:35:58.206Z,62.50
2018-03-27T12:38:27.837Z,62.10
2018-03-27T12:40:56.849Z,62.40
2018-03-27T12:43:25.029Z,62.40
2018-03-27T12:45:53.179Z,62.60
2018-03-27T12:48:22.065Z,62.70
2018-03-27T12:50:51.067Z,63.30
2018-03-27T12:53:19.238Z,63.30
2018-03-27T12:55:47.299Z,63.40
2018-03-27T12:58:16.227Z,64.00
2018-03-27T13:00:44.343Z,64.00
2018-03-27T13:03:13.263Z,63.40
2018-03-27T13:05:41.411Z,63.90
2018-03-27T13:08:09.563Z,63.60
2018-03-27T13:10:37.719Z,63.80
2018-03-27T13:13:05.869Z,63.50
2018-03-27T13:15:33.975Z,63.50
2018-03-27T13:18:02.256Z,64.70
2018-03-27T13:20:30.380Z,64.10
2018-03-27T13:22:58.565Z,64.20
2018-03-27T13:25:26.684Z,64.00
2018-03-27T13:27:54.814Z,64.70
2018-03-27T13:30:22.942Z,64.70
2018-03-27T13:32:51.858Z,64.90
2018-03-27T13:35:20.050Z,64.90
2018-03-27T13:37:48.166Z,64.30
2018-03-27T13:40:16.386Z,64.30
2018-03-27T13:42:44.488Z,64.10
2018-03-27T13:45:12.612Z,64.80
2018-03-27T13:47:41.508Z,64.20
2018-03-27T13:50:10.365Z,64.00
2018-03-27T13:52:38.576Z,64.00
2018-03-27T13:55:07.571Z,63.90
2018-03-27T13:57:36.448Z,63.80
2018-03-27T14:00:06.200Z,63.80
2018-03-27T14:02:34.302Z,63.70
2018-03-27T14:05:02.404Z,63.70
2018-03-27T14:07:31.304Z,63.50
2018-03-27T14:10:00.212Z,63.50
2018-03-27T14:12:28.356Z,63.50
2018-03-27T14:14:57.301Z,63.60
2018-03-27T14:17:26.116Z,63.30
2018-03-27T14:19:54.240Z,63.30
2018-03-27T14:22:22.371Z,63.50
2018-03-27T14:24:51.254Z,63.90
2018-03-27T14:27:20.183Z,63.60
2018-03-27T14:29:48.379Z,63.70
2018-03-27T14:32:16.484Z,64.10
2018-03-27T14:34:44.584Z,63.80
2018-03-27T14:37:13.464Z,64.70
2018-03-27T14:39:41.680Z,64.70
2018-03-27T14:42:09.828Z,64.50
2018-03-27T14:44:38.753Z,64.50
2018-03-27T14:47:07.607Z,64.80
2018-03-27T14:49:36.515Z,64.50
2018-03-27T14:52:04.637Z,64.50
2018-03-27T14:54:32.751Z,64.60
2018-03-27T14:57:01.667Z,64.80
2018-03-27T14:59:29.798Z,64.80
2018-03-27T15:01:58.725Z,65.20
2018-03-27T15:04:26.832Z,65.10
2018-03-27T15:06:54.943Z,65.80
2018-03-27T15:09:23.939Z,65.10
2018-03-27T15:11:52.942Z,65.20
2018-03-27T15:14:21.067Z,65.20
2018-03-27T15:16:49.286Z,65.60
2018-03-27T15:19:17.389Z,65.40
2018-03-27T15:21:45.501Z,65.30
2018-03-27T15:24:15.196Z,65.20
2018-03-27T15:26:43.275Z,65.20
2018-03-27T15:29:12.899Z,65.40
2018-03-27T15:31:41.801Z,65.80
2018-03-27T15:34:10.691Z,65.60
2018-03-27T15:36:39.683Z,65.70
2018-03-27T15:39:08.578Z,65.50
2018-03-27T15:41:36.781Z,65.50
2018-03-27T15:44:04.953Z,65.60
2018-03-27T15:46:33.065Z,65.50
2018-03-27T15:49:01.167Z,65.90
2018-03-27T15:51:30.114Z,66.10
2018-03-27T15:53:58.233Z,66.10
2018-03-27T15:56:27.102Z,67.00
2018-03-27T15:58:55.987Z,66.30
2018-03-27T16:01:24.890Z,66.80
2018-03-27T16:03:53.794Z,67.50
2018-03-27T16:06:21.899Z,67.50
2018-03-27T16:08:50.009Z,67.40
2018-03-27T16:11:18.927Z,67.40
2018-03-27T16:13:47.054Z,67.40
2018-03-27T16:16:15.210Z,67.40
2018-03-27T16:18:43.310Z,67.60
2018-03-27T16:21:11.415Z,68.00
2018-03-27T16:23:39.695Z,68.20
2018-03-27T16:26:08.579Z,67.50
2018-03-27T16:28:37.468Z,67.80
2018-03-27T16:31:06.382Z,67.00
2018-03-27T16:33:34.504Z,67.00
2018-03-27T16:36:04.140Z,67.20
2018-03-27T16:38:33.011Z,67.30
2018-03-27T16:41:01.894Z,67.50
2018-03-27T16:43:30.142Z,67.50
2018-03-27T16:45:58.255Z,68.50
2018-03-27T16:48:27.131Z,68.50
2018-03-27T16:50:55.432Z,68.30
2018-03-27T16:53:24.422Z,67.70
2018-03-27T16:55:53.320Z,67.70
2018-03-27T16:58:22.193Z,68.30
2018-03-27T17:00:51.112Z,67.80
2018-03-27T17:03:19.244Z,68.30
2018-03-27T17:05:47.402Z,69.40
2018-03-27T17:08:15.628Z,69.20
2018-03-27T17:10:43.740Z,67.60
2018-03-27T17:13:11.896Z,67.70
2018-03-27T17:15:40.017Z,67.80
2018-03-27T17:18:08.116Z,69.10
2018-03-27T17:20:36.238Z,68.70
2018-03-27T17:23:04.348Z,68.40
2018-03-27T17:25:33.212Z,68.80
2018-03-27T17:28:01.338Z,68.70
2018-03-27T17:30:29.494Z,68.80
2018-03-27T17:32:58.384Z,69.10
2018-03-27T17:35:26.504Z,69.00
2018-03-27T17:37:54.601Z,69.70
2018-03-27T17:40:23.543Z,70.30
2018-03-27T17:42:51.715Z,69.70
2018-03-27T17:45:20.594Z,69.50
2018-03-27T17:47:48.725Z,70.00
2018-03-27T17:50:16.849Z,70.20
2018-03-27T17:52:45.716Z,71.30
2018-03-27T17:55:14.604Z,70.10
2018-03-27T17:57:43.475Z,71.90
2018-03-27T18:00:12.394Z,72.20
2018-03-27T18:02:40.499Z,71.90
2018-03-27T18:05:08.620Z,72.10
2018-03-27T18:07:37.491Z,73.00
2018-03-27T18:10:06.411Z,71.70
2018-03-27T18:12:35.419Z,71.90
2018-03-27T18:15:03.577Z,71.80
2018-03-27T18:17:32.472Z,71.60
2018-03-27T18:20:01.335Z,71.70
2018-03-27T18:22:30.991Z,71.80
2018-03-27T18:24:59.099Z,71.80
2018-03-27T18:27:27.318Z,71.80
2018-03-27T18:29:57.084Z,71.70
2018-03-27T18:32:25.227Z,71.70
2018-03-27T18:34:53.347Z,72.10
2018-03-27T18:37:21.498Z,72.00
2018-03-27T18:39:49.589Z,71.30
2018-03-27T18:42:18.496Z,72.10
2018-03-27T18:44:47.418Z,71.10
2018-03-27T18:47:15.527Z,71.10
2018-03-27T18:49:43.648Z,71.20
2018-03-27T18:52:11.803Z,70.50
2018-03-27T18:54:40.711Z,70.60
2018-03-27T18:57:08.879Z,70.50
2018-03-27T18:59:37.007Z,70.30
2018-03-27T19:02:05.257Z,70.50
2018-03-27T19:04:33.423Z,70.40
2018-03-27T19:07:01.535Z,70.20
2018-03-27T19:09:29.651Z,70.00
2018-03-27T19:11:57.763Z,70.10
2018-03-27T19:14:25.995Z,70.40
2018-03-27T19:16:54.121Z,70.20
2018-03-27T19:19:22.263Z,70.40
2018-03-27T19:21:50.407Z,71.30
2018-03-27T19:24:19.325Z,70.90
2018-03-27T19:26:47.479Z,70.90
2018-03-27T19:29:15.607Z,70.80
2018-03-27T19:31:43.823Z,70.70
2018-03-27T19:34:11.968Z,70.60
2018-03-27T19:36:40.865Z,70.50
2018-03-27T19:39:09.755Z,71.20
2018-03-27T19:41:37.947Z,71.20
2018-03-27T19:44:06.075Z,71.10
2018-03-27T19:46:34.295Z,70.70
2018-03-27T19:49:02.427Z,71.00
2018-03-27T19:51:30.644Z,71.90
2018-03-27T19:53:58.780Z,71.90
2018-03-27T19:56:26.903Z,71.80
2018-03-27T19:58:55.023Z,71.10
2018-03-27T20:01:23.192Z,71.50
2018-03-27T20:03:52.844Z,71.70
2018-03-27T20:06:20.982Z,71.60
2018-03-27T20:08:49.903Z,72.30
2018-03-27T20:11:18.057Z,71.40
2018-03-27T20:13:46.283Z,72.50
2018-03-27T20:16:14.428Z,72.20
2018-03-27T20:18:42.546Z,72.50
2018-03-27T20:21:10.796Z,72.10
2018-03-27T20:23:38.942Z,72.20
2018-03-27T20:26:07.834Z,72.20
2018-03-27T20:28:36.006Z,72.20
2018-03-27T20:31:04.136Z,72.00
2018-03-27T20:33:32.360Z,71.90
2018-03-27T20:36:00.497Z,71.70
2018-03-27T20:38:30.134Z,71.50
2018-03-27T20:40:59.024Z,72.10
2018-03-27T20:43:27.168Z,72.10
2018-03-27T20:45:56.107Z,72.90
2018-03-27T20:48:24.234Z,72.20
2018-03-27T20:50:52.348Z,72.40
2018-03-27T20:53:20.513Z,72.60
2018-03-27T20:55:48.680Z,72.50
2018-03-27T20:58:16.806Z,72.60
2018-03-27T21:00:44.924Z,72.60
2018-03-27T21:03:13.822Z,72.40
2018-03-27T21:05:41.956Z,72.30
2018-03-27T21:08:10.172Z,72.40
2018-03-27T21:10:38.294Z,73.60
2018-03-27T21:13:06.413Z,72.90
2018-03-27T21:15:34.548Z,73.20
2018-03-27T21:18:04.188Z,73.70
2018-03-27T21:20:33.083Z,73.50
2018-03-27T21:23:01.247Z,73.50
2018-03-27T21:25:30.173Z,73.60
2018-03-27T21:27:58.287Z,73.50
2018-03-27T21:30:26.408Z,73.40
2018-03-27T21:32:54.552Z,72.90
2018-03-27T21:35:23.446Z,73.90
2018-03-27T21:37:52.459Z,73.30
2018-03-27T21:40:20.624Z,73.30
2018-03-27T21:42:48.744Z,74.20
2018-03-27T21:45:16.971Z,73.50
2018-03-27T21:47:45.100Z,73.50
2018-03-27T21:50:13.989Z,73.40
2018-03-27T21:52:42.120Z,73.40
2018-03-27T21:55:10.245Z,73.80
2018-03-27T21:57:39.887Z,73.10
2018-03-27T22:00:08.012Z,73.10
2018-03-27T22:02:36.123Z,73.70
2018-03-27T22:05:04.263Z,73.70
2018-03-27T22:07:32.411Z,74.00
2018-03-27T22:10:00.540Z,73.70
2018-03-27T22:12:29.435Z,74.20
2018-03-27T22:14:57.612Z,74.10
2018-03-27T22:17:25.791Z,74.40
2018-03-27T22:19:54.663Z,74.00
2018-03-27T22:22:23.567Z,74.40
2018-03-27T22:24:51.751Z,74.40
2018-03-27T22:27:19.877Z,74.30
2018-03-27T22:29:47.992Z,74.50
2018-03-27T22:32:16.111Z,74.20
2018-03-27T22:34:44.263Z,74.40
2018-03-27T22:37:12.397Z,74.40
2018-03-27T22:39:41.291Z,74.20
2018-03-27T22:42:10.183Z,74.10
2018-03-27T22:44:38.303Z,74.10
2018-03-27T22:47:06.459Z,74.30
2018-03-27T22:49:34.593Z,74.30
2018-03-27T22:52:03.480Z,74.60
2018-03-27T22:54:32.380Z,74.40
2018-03-27T22:57:00.563Z,74.30
2018-03-27T22:59:28.734Z,74.40
2018-03-27T23:01:56.903Z,74.20
2018-03-27T23:04:25.023Z,73.90
2018-03-27T23:06:53.195Z,74.80
2018-03-27T23:09:21.325Z,74.10
2018-03-27T23:11:49.442Z,74.60
2018-03-27T23:14:17.587Z,74.40
2018-03-27T23:16:45.719Z,74.00
2018-03-27T23:19:14.614Z,74.80
2018-03-27T23:21:43.503Z,74.10
2018-03-27T23:24:12.412Z,74.80
2018-03-27T23:26:40.551Z,74.70
2018-03-27T23:29:09.475Z,75.20
2018-03-27T23:31:37.648Z,74.30
2018-03-27T23:34:05.775Z,74.10
2018-03-27T23:36:33.994Z,74.70
2018-03-27T23:39:02.166Z,74.10
2018-03-27T23:41:30.290Z,74.30
2018-03-27T23:43:58.420Z,74.80
2018-03-27T23:46:26.541Z,74.20
2018-03-27T23:48:54.664Z,74.30
2018-03-27T23:51:22.787Z,74.30
2018-03-27T23:53:50.929Z,74.90
2018-03-27T23:56:19.048Z,74.40
2018-03-27T23:58:47.952Z,74.90
